sensor_id;sensor_type;location;lat;lon;timestamp;pressure;altitude;pressure_sealevel;temperature;humidity
29909;BME280;36247;51.952;6.146;2022-09-25T00:01:32;101403.06;;;10.19;100.00
29909;BME280;36247;51.952;6.146;2022-09-25T00:03:57;101398.69;;;10.20;100.00
29909;BME280;36247;51.952;6.146;2022-09-25T00:06:24;101404.00;;;10.20;100.00
29909;BME280;36247;51.952;6.146;2022-09-25T00:08:51;101408.41;;;10.21;100.00
29909;BME280;36247;51.952;6.146;2022-09-25T00:11:22;101405.88;;;10.24;100.00
29909;BME280;36247;51.952;6.146;2022-09-25T00:13:48;101406.63;;;10.20;100.00
29909;BME280;36247;51.952;6.146;2022-09-25T00:16:17;101412.94;;;10.25;100.00
29909;BME280;36247;51.952;6.146;2022-09-25T00:18:43;101415.56;;;10.25;100.00
29909;BME280;36247;51.952;6.146;2022-09-25T00:21:28;101416.53;;;10.27;100.00
29909;BME280;36247;51.952;6.146;2022-09-25T00:23:56;101413.81;;;10.24;100.00
29909;BME280;36247;51.952;6.146;2022-09-25T00:26:26;101423.44;;;10.22;100.00
29909;BME280;36247;51.952;6.146;2022-09-25T00:28:54;101409.25;;;10.18;100.00
29909;BME280;36247;51.952;6.146;2022-09-25T00:31:21;101417.19;;;10.18;100.00
29909;BME280;36247;51.952;6.146;2022-09-25T00:33:50;101411.81;;;10.15;100.00
29909;BME280;36247;51.952;6.146;2022-09-25T00:36:16;101410.69;;;10.05;100.00
29909;BME280;36247;51.952;6.146;2022-09-25T00:38:42;101416.09;;;10.10;100.00
29909;BME280;36247;51.952;6.146;2022-09-25T00:41:10;101411.50;;;10.03;100.00
29909;BME280;36247;51.952;6.146;2022-09-25T00:46:10;101408.84;;;10.03;100.00
29909;BME280;36247;51.952;6.146;2022-09-25T00:48:40;101411.44;;;10.01;100.00
29909;BME280;36247;51.952;6.146;2022-09-25T00:51:08;101417.47;;;9.94;100.00
29909;BME280;36247;51.952;6.146;2022-09-25T00:53:37;101415.69;;;9.93;100.00
29909;BME280;36247;51.952;6.146;2022-09-25T00:56:06;101412.28;;;9.99;100.00
29909;BME280;36247;51.952;6.146;2022-09-25T00:58:35;101416.72;;;10.00;100.00
29909;BME280;36247;51.952;6.146;2022-09-25T01:01:03;101409.38;;;9.89;100.00
29909;BME280;36247;51.952;6.146;2022-09-25T01:03:28;101411.00;;;9.83;100.00
29909;BME280;36247;51.952;6.146;2022-09-25T01:05:55;101420.53;;;9.78;100.00
29909;BME280;36247;51.952;6.146;2022-09-25T01:08:24;101420.06;;;9.93;100.00
29909;BME280;36247;51.952;6.146;2022-09-25T01:10:52;101424.78;;;9.71;100.00
29909;BME280;36247;51.952;6.146;2022-09-25T01:13:18;101414.13;;;9.68;100.00
29909;BME280;36247;51.952;6.146;2022-09-25T01:29:30;101419.06;;;9.54;100.00
29909;BME280;36247;51.952;6.146;2022-09-25T01:34:53;101420.75;;;9.52;100.00
29909;BME280;36247;51.952;6.146;2022-09-25T01:42:45;101419.75;;;9.47;100.00
29909;BME280;36247;51.952;6.146;2022-09-25T01:45:20;101415.09;;;9.38;100.00
29909;BME280;36247;51.952;6.146;2022-09-25T01:47:50;101418.03;;;9.49;100.00
29909;BME280;36247;51.952;6.146;2022-09-25T01:50:35;101425.75;;;9.41;100.00
29909;BME280;36247;51.952;6.146;2022-09-25T01:53:06;101418.63;;;9.39;100.00
29909;BME280;36247;51.952;6.146;2022-09-25T01:55:52;101428.19;;;9.33;100.00
29909;BME280;36247;51.952;6.146;2022-09-25T01:58:33;101431.78;;;9.37;100.00
29909;BME280;36247;51.952;6.146;2022-09-25T02:01:07;101428.97;;;9.31;100.00
29909;BME280;36247;51.952;6.146;2022-09-25T02:03:54;101432.38;;;9.27;100.00
29909;BME280;36247;51.952;6.146;2022-09-25T02:06:22;101425.53;;;9.33;100.00
29909;BME280;36247;51.952;6.146;2022-09-25T02:08:58;101421.31;;;9.40;100.00
29909;BME280;36247;51.952;6.146;2022-09-25T02:11:30;101417.81;;;9.41;100.00
29909;BME280;36247;51.952;6.146;2022-09-25T02:14:02;101423.81;;;9.35;100.00
29909;BME280;36247;51.952;6.146;2022-09-25T02:16:36;101426.56;;;9.39;100.00
29909;BME280;36247;51.952;6.146;2022-09-25T02:19:04;101426.56;;;9.39;100.00
29909;BME280;36247;51.952;6.146;2022-09-25T02:21:59;101418.56;;;9.37;100.00
29909;BME280;36247;51.952;6.146;2022-09-25T02:26:57;101421.00;;;9.29;100.00
29909;BME280;36247;51.952;6.146;2022-09-25T02:29:22;101420.72;;;9.18;100.00
29909;BME280;36247;51.952;6.146;2022-09-25T02:31:54;101433.13;;;9.21;100.00
29909;BME280;36247;51.952;6.146;2022-09-25T02:34:21;101427.72;;;9.18;100.00
29909;BME280;36247;51.952;6.146;2022-09-25T02:36:48;101423.88;;;9.07;100.00
29909;BME280;36247;51.952;6.146;2022-09-25T02:39:16;101423.81;;;9.04;100.00
29909;BME280;36247;51.952;6.146;2022-09-25T02:47:34;101435.88;;;8.95;100.00
29909;BME280;36247;51.952;6.146;2022-09-25T02:50:18;101439.09;;;8.85;100.00
29909;BME280;36247;51.952;6.146;2022-09-25T02:53:51;101433.00;;;8.88;100.00
29909;BME280;36247;51.952;6.146;2022-09-25T02:56:02;101424.28;;;8.90;100.00
29909;BME280;36247;51.952;6.146;2022-09-25T02:58:33;101427.91;;;8.94;100.00
29909;BME280;36247;51.952;6.146;2022-09-25T03:01:03;101420.69;;;8.88;100.00
29909;BME280;36247;51.952;6.146;2022-09-25T03:03:31;101418.00;;;8.87;100.00
29909;BME280;36247;51.952;6.146;2022-09-25T03:05:58;101417.84;;;8.82;100.00
29909;BME280;36247;51.952;6.146;2022-09-25T03:08:26;101416.13;;;8.82;100.00
29909;BME280;36247;51.952;6.146;2022-09-25T03:11:14;101413.34;;;8.78;100.00
29909;BME280;36247;51.952;6.146;2022-09-25T03:13:41;101415.75;;;8.70;100.00
29909;BME280;36247;51.952;6.146;2022-09-25T03:16:17;101424.22;;;8.58;100.00
29909;BME280;36247;51.952;6.146;2022-09-25T03:18:46;101413.56;;;8.57;100.00
29909;BME280;36247;51.952;6.146;2022-09-25T03:21:12;101417.31;;;8.63;100.00
29909;BME280;36247;51.952;6.146;2022-09-25T03:23:38;101424.31;;;8.61;100.00
29909;BME280;36247;51.952;6.146;2022-09-25T03:26:04;101426.59;;;8.51;100.00
29909;BME280;36247;51.952;6.146;2022-09-25T03:28:30;101420.41;;;8.50;100.00
29909;BME280;36247;51.952;6.146;2022-09-25T03:30:58;101428.38;;;8.52;100.00
29909;BME280;36247;51.952;6.146;2022-09-25T03:33:26;101425.69;;;8.50;100.00
29909;BME280;36247;51.952;6.146;2022-09-25T03:36:07;101412.63;;;8.55;100.00
29909;BME280;36247;51.952;6.146;2022-09-25T03:38:35;101409.91;;;8.52;100.00
29909;BME280;36247;51.952;6.146;2022-09-25T03:41:02;101410.91;;;8.57;100.00
29909;BME280;36247;51.952;6.146;2022-09-25T03:43:28;101407.31;;;8.53;100.00
29909;BME280;36247;51.952;6.146;2022-09-25T03:45:58;101402.06;;;8.55;100.00
29909;BME280;36247;51.952;6.146;2022-09-25T03:48:23;101404.44;;;8.45;100.00
29909;BME280;36247;51.952;6.146;2022-09-25T03:50:49;101410.47;;;8.43;100.00
29909;BME280;36247;51.952;6.146;2022-09-25T03:53:15;101406.94;;;8.42;100.00
29909;BME280;36247;51.952;6.146;2022-09-25T03:55:43;101411.22;;;8.39;100.00
29909;BME280;36247;51.952;6.146;2022-09-25T03:58:11;101406.22;;;8.21;100.00
29909;BME280;36247;51.952;6.146;2022-09-25T04:00:39;101405.34;;;8.20;100.00
29909;BME280;36247;51.952;6.146;2022-09-25T04:03:05;101406.22;;;8.21;100.00
29909;BME280;36247;51.952;6.146;2022-09-25T04:05:30;101402.75;;;8.22;100.00
29909;BME280;36247;51.952;6.146;2022-09-25T04:07:56;101400.97;;;8.21;100.00
29909;BME280;36247;51.952;6.146;2022-09-25T04:10:22;101400.22;;;8.25;100.00
29909;BME280;36247;51.952;6.146;2022-09-25T04:12:48;101405.19;;;8.16;100.00
29909;BME280;36247;51.952;6.146;2022-09-25T04:15:19;101398.72;;;8.06;100.00
29909;BME280;36247;51.952;6.146;2022-09-25T04:17:47;101401.34;;;8.06;100.00
29909;BME280;36247;51.952;6.146;2022-09-25T04:20:13;101397.78;;;8.04;100.00
29909;BME280;36247;51.952;6.146;2022-09-25T04:22:39;101408.31;;;8.04;100.00
29909;BME280;36247;51.952;6.146;2022-09-25T04:25:05;101409.75;;;7.94;100.00
29909;BME280;36247;51.952;6.146;2022-09-25T04:27:30;101410.66;;;7.94;100.00
29909;BME280;36247;51.952;6.146;2022-09-25T04:29:56;101409.44;;;7.85;100.00
29909;BME280;36247;51.952;6.146;2022-09-25T04:32:22;101415.22;;;7.99;100.00
29909;BME280;36247;51.952;6.146;2022-09-25T04:35:06;101404.56;;;7.97;100.00
29909;BME280;36247;51.952;6.146;2022-09-25T04:37:32;101404.03;;;8.07;100.00
29909;BME280;36247;51.952;6.146;2022-09-25T04:39:57;101407.75;;;8.12;100.00
29909;BME280;36247;51.952;6.146;2022-09-25T04:42:24;101413.50;;;8.01;100.00
29909;BME280;36247;51.952;6.146;2022-09-25T04:44:54;101403.22;;;7.83;100.00
29909;BME280;36247;51.952;6.146;2022-09-25T04:47:21;101411.88;;;7.79;100.00
29909;BME280;36247;51.952;6.146;2022-09-25T04:49:47;101404.28;;;7.62;100.00
29909;BME280;36247;51.952;6.146;2022-09-25T04:52:14;101401.59;;;7.61;100.00
29909;BME280;36247;51.952;6.146;2022-09-25T04:54:41;101401.59;;;7.61;100.00
29909;BME280;36247;51.952;6.146;2022-09-25T04:57:14;101395.91;;;7.48;100.00
29909;BME280;36247;51.952;6.146;2022-09-25T04:59:39;101401.28;;;7.51;100.00
29909;BME280;36247;51.952;6.146;2022-09-25T05:02:05;101400.03;;;7.41;100.00
29909;BME280;36247;51.952;6.146;2022-09-25T05:04:31;101406.72;;;7.32;100.00
29909;BME280;36247;51.952;6.146;2022-09-25T05:06:57;101396.47;;;7.39;100.00
29909;BME280;36247;51.952;6.146;2022-09-25T05:09:22;101394.38;;;7.31;100.00
29909;BME280;36247;51.952;6.146;2022-09-25T05:11:48;101400.38;;;7.27;100.00
29909;BME280;36247;51.952;6.146;2022-09-25T05:14:13;101404.09;;;7.32;100.00
29909;BME280;36247;51.952;6.146;2022-09-25T05:16:39;101391.66;;;7.28;100.00
29909;BME280;36247;51.952;6.146;2022-09-25T05:19:04;101389.84;;;7.27;100.00
29909;BME280;36247;51.952;6.146;2022-09-25T05:21:31;101389.91;;;7.28;100.00
29909;BME280;36247;51.952;6.146;2022-09-25T05:23:57;101390.06;;;7.33;100.00
29909;BME280;36247;51.952;6.146;2022-09-25T05:26:23;101388.28;;;7.32;100.00
29909;BME280;36247;51.952;6.146;2022-09-25T05:28:49;101391.59;;;7.26;100.00
29909;BME280;36247;51.952;6.146;2022-09-25T05:31:15;101383.63;;;7.24;100.00
29909;BME280;36247;51.952;6.146;2022-09-25T05:33:41;101380.09;;;7.24;100.00
29909;BME280;36247;51.952;6.146;2022-09-25T05:36:08;101390.88;;;7.30;100.00
29909;BME280;36247;51.952;6.146;2022-09-25T05:38:35;101392.19;;;7.43;100.00
29909;BME280;36247;51.952;6.146;2022-09-25T05:41:08;101384.13;;;7.38;100.00
29909;BME280;36247;51.952;6.146;2022-09-25T05:43:39;101391.19;;;7.15;100.00
29909;BME280;36247;51.952;6.146;2022-09-25T05:46:06;101397.41;;;6.93;100.00
29909;BME280;36247;51.952;6.146;2022-09-25T05:48:31;101398.81;;;7.07;100.00
29909;BME280;36247;51.952;6.146;2022-09-25T05:50:57;101398.13;;;7.13;100.00
29909;BME280;36247;51.952;6.146;2022-09-25T05:53:23;101405.09;;;7.11;100.00
29909;BME280;36247;51.952;6.146;2022-09-25T05:55:54;101402.75;;;7.19;100.00
29909;BME280;36247;51.952;6.146;2022-09-25T05:58:22;101406.72;;;7.32;100.00
29909;BME280;36247;51.952;6.146;2022-09-25T06:00:49;101398.81;;;7.32;100.00
29909;BME280;36247;51.952;6.146;2022-09-25T06:03:16;101398.38;;;7.44;100.00
29909;BME280;36247;51.952;6.146;2022-09-25T06:05:42;101405.97;;;7.60;100.00
29909;BME280;36247;51.952;6.146;2022-09-25T06:08:13;101396.47;;;7.65;100.00
29909;BME280;36247;51.952;6.146;2022-09-25T06:10:40;101398.69;;;7.79;100.00
29909;BME280;36247;51.952;6.146;2022-09-25T06:13:06;101397.19;;;7.85;100.00
29909;BME280;36247;51.952;6.146;2022-09-25T06:15:37;101397.69;;;8.01;100.00
29909;BME280;36247;51.952;6.146;2022-09-25T06:18:07;101400.31;;;8.01;100.00
29909;BME280;36247;51.952;6.146;2022-09-25T06:20:33;101396.88;;;8.03;100.00
29909;BME280;36247;51.952;6.146;2022-09-25T06:22:58;101398.75;;;8.07;100.00
29909;BME280;36247;51.952;6.146;2022-09-25T06:25:29;101399.22;;;8.21;100.00
29909;BME280;36247;51.952;6.146;2022-09-25T06:27:57;101405.63;;;8.29;100.00
29909;BME280;36247;51.952;6.146;2022-09-25T06:30:25;101407.53;;;8.34;100.00
29909;BME280;36247;51.952;6.146;2022-09-25T06:33:07;101411.78;;;8.56;100.00
29909;BME280;36247;51.952;6.146;2022-09-25T06:35:35;101405.41;;;8.49;100.00
29909;BME280;36247;51.952;6.146;2022-09-25T06:38:01;101414.19;;;8.48;100.00
29909;BME280;36247;51.952;6.146;2022-09-25T06:40:29;101403.09;;;8.58;100.00
29909;BME280;36247;51.952;6.146;2022-09-25T06:42:59;101409.53;;;8.68;100.00
29909;BME280;36247;51.952;6.146;2022-09-25T06:45:27;101398.44;;;8.80;100.00
29909;BME280;36247;51.952;6.146;2022-09-25T06:47:53;101404.81;;;8.88;100.00
29909;BME280;36247;51.952;6.146;2022-09-25T06:50:26;101405.97;;;8.96;100.00
29909;BME280;36247;51.952;6.146;2022-09-25T06:52:59;101398.56;;;9.15;100.00
29909;BME280;36247;51.952;6.146;2022-09-25T06:55:26;101397.13;;;9.26;100.00
29909;BME280;36247;51.952;6.146;2022-09-25T06:57:53;101399.94;;;9.32;100.00
29909;BME280;36247;51.952;6.146;2022-09-25T07:00:18;101403.78;;;9.44;100.00
29909;BME280;36247;51.952;6.146;2022-09-25T07:02:44;101404.28;;;9.62;100.00
29909;BME280;36247;51.952;6.146;2022-09-25T07:05:28;101395.81;;;9.76;100.00
29909;BME280;36247;51.952;6.146;2022-09-25T07:07:54;101400.72;;;9.95;100.00
29909;BME280;36247;51.952;6.146;2022-09-25T07:10:20;101408.91;;;10.06;100.00
29909;BME280;36247;51.952;6.146;2022-09-25T07:12:46;101411.75;;;10.12;100.00
29909;BME280;36247;51.952;6.146;2022-09-25T07:15:12;101413.81;;;10.24;100.00
29909;BME280;36247;51.952;6.146;2022-09-25T07:17:42;101409.06;;;10.47;100.00
29909;BME280;36247;51.952;6.146;2022-09-25T07:20:08;101413.72;;;10.22;100.00
29909;BME280;36247;51.952;6.146;2022-09-25T07:22:37;101425.44;;;10.31;100.00
29909;BME280;36247;51.952;6.146;2022-09-25T07:25:03;101418.84;;;10.50;100.00
29909;BME280;36247;51.952;6.146;2022-09-25T07:27:29;101433.22;;;10.61;100.00
29909;BME280;36247;51.952;6.146;2022-09-25T07:29:54;101423.94;;;10.80;100.00
29909;BME280;36247;51.952;6.146;2022-09-25T07:32:21;101430.56;;;10.99;100.00
29909;BME280;36247;51.952;6.146;2022-09-25T07:34:46;101428.78;;;11.00;100.00
29909;BME280;36247;51.952;6.146;2022-09-25T07:37:15;101425.19;;;10.96;100.00
29909;BME280;36247;51.952;6.146;2022-09-25T07:39:41;101432.66;;;11.16;100.00
29909;BME280;36247;51.952;6.146;2022-09-25T07:42:07;101419.22;;;11.51;100.00
29909;BME280;36247;51.952;6.146;2022-09-25T07:44:33;101414.84;;;11.53;100.00
29909;BME280;36247;51.952;6.146;2022-09-25T07:46:58;101414.59;;;11.89;100.00
29909;BME280;36247;51.952;6.146;2022-09-25T07:49:25;101416.34;;;11.86;100.00
29909;BME280;36247;51.952;6.146;2022-09-25T07:51:51;101410.16;;;12.40;100.00
29909;BME280;36247;51.952;6.146;2022-09-25T07:54:16;101424.34;;;12.39;100.00
29909;BME280;36247;51.952;6.146;2022-09-25T07:56:42;101421.59;;;12.34;100.00
29909;BME280;36247;51.952;6.146;2022-09-25T07:59:07;101411.66;;;12.81;100.00
29909;BME280;36247;51.952;6.146;2022-09-25T08:01:32;101418.53;;;12.65;100.00
29909;BME280;36247;51.952;6.146;2022-09-25T08:03:58;101422.81;;;12.57;100.00
29909;BME280;36247;51.952;6.146;2022-09-25T08:06:23;101411.09;;;13.05;100.00
29909;BME280;36247;51.952;6.146;2022-09-25T08:08:49;101410.50;;;13.31;100.00
29909;BME280;36247;51.952;6.146;2022-09-25T08:11:15;101411.47;;;13.34;100.00
29909;BME280;36247;51.952;6.146;2022-09-25T08:13:41;101407.22;;;13.50;100.00
29909;BME280;36247;51.952;6.146;2022-09-25T08:16:09;101416.19;;;13.60;100.00
29909;BME280;36247;51.952;6.146;2022-09-25T08:18:36;101411.94;;;13.79;100.00
29909;BME280;36247;51.952;6.146;2022-09-25T08:21:03;101416.53;;;13.96;100.00
29909;BME280;36247;51.952;6.146;2022-09-25T08:23:30;101410.94;;;13.65;100.00
29909;BME280;36247;51.952;6.146;2022-09-25T08:25:55;101416.09;;;13.52;100.00
29909;BME280;36247;51.952;6.146;2022-09-25T08:28:21;101407.56;;;13.84;100.00
29909;BME280;36247;51.952;6.146;2022-09-25T08:30:47;101407.91;;;14.26;100.00
29909;BME280;36247;51.952;6.146;2022-09-25T08:33:13;101407.78;;;14.14;100.00
29909;BME280;36247;51.952;6.146;2022-09-25T08:35:39;101401.84;;;14.49;100.00
29909;BME280;36247;51.952;6.146;2022-09-25T08:38:09;101406.16;;;14.31;100.00
29909;BME280;36247;51.952;6.146;2022-09-25T08:40:51;101408.09;;;14.52;100.00
29909;BME280;36247;51.952;6.146;2022-09-25T08:43:20;101397.25;;;14.24;100.00
29909;BME280;36247;51.952;6.146;2022-09-25T08:45:47;101400.84;;;14.31;100.00
29909;BME280;36247;51.952;6.146;2022-09-25T08:48:41;101395.97;;;15.01;100.00
29909;BME280;36247;51.952;6.146;2022-09-25T08:51:44;101391.66;;;15.40;100.00
29909;BME280;36247;51.952;6.146;2022-09-25T08:54:17;101392.44;;;15.11;96.91
29909;BME280;36247;51.952;6.146;2022-09-25T08:56:48;101386.38;;;15.71;93.44
29909;BME280;36247;51.952;6.146;2022-09-25T08:59:36;101389.00;;;15.64;99.15
29909;BME280;36247;51.952;6.146;2022-09-25T09:02:15;101391.66;;;15.57;99.49
29909;BME280;36247;51.952;6.146;2022-09-25T09:04:45;101391.75;;;16.03;97.50
29909;BME280;36247;51.952;6.146;2022-09-25T09:07:22;101390.78;;;15.58;100.00
29909;BME280;36247;51.952;6.146;2022-09-25T09:12:42;101390.88;;;15.96;96.15
29909;BME280;36247;51.952;6.146;2022-09-25T09:15:16;101399.78;;;15.95;91.26
29909;BME280;36247;51.952;6.146;2022-09-25T09:17:45;101402.44;;;16.38;89.35
29909;BME280;36247;51.952;6.146;2022-09-25T09:20:45;101406.03;;;16.19;86.64
29909;BME280;36247;51.952;6.146;2022-09-25T09:23:17;101401.56;;;16.19;86.47
29909;BME280;36247;51.952;6.146;2022-09-25T09:37:04;101381.88;;;18.26;82.75
29909;BME280;36247;51.952;6.146;2022-09-25T09:39:41;101381.81;;;18.34;75.68
29909;BME280;36247;51.952;6.146;2022-09-25T09:45:20;101389.84;;;16.82;82.20
29909;BME280;36247;51.952;6.146;2022-09-25T09:50:41;101382.41;;;17.52;74.28
29909;BME280;36247;51.952;6.146;2022-09-25T09:53:33;101372.50;;;18.66;73.41
29909;BME280;36247;51.952;6.146;2022-09-25T09:56:17;101368.78;;;19.51;70.73
29909;BME280;36247;51.952;6.146;2022-09-25T09:58:59;101372.38;;;19.50;68.99
29909;BME280;36247;51.952;6.146;2022-09-25T10:01:29;101375.72;;;19.02;69.53
29909;BME280;36247;51.952;6.146;2022-09-25T10:04:21;101376.28;;;18.53;70.38
29909;BME280;36247;51.952;6.146;2022-09-25T10:06:58;101369.63;;;20.12;66.62
29909;BME280;36247;51.952;6.146;2022-09-25T10:09:26;101376.66;;;19.65;68.75
29909;BME280;36247;51.952;6.146;2022-09-25T10:12:03;101375.47;;;20.36;64.12
29909;BME280;36247;51.952;6.146;2022-09-25T10:14:35;101370.81;;;20.92;62.54
29909;BME280;36247;51.952;6.146;2022-09-25T10:17:02;101373.88;;;20.75;63.72
29909;BME280;36247;51.952;6.146;2022-09-25T10:19:37;101372.59;;;19.34;62.76
29909;BME280;36247;51.952;6.146;2022-09-25T10:22:14;101364.63;;;19.27;65.28
29909;BME280;36247;51.952;6.146;2022-09-25T10:24:53;101370.63;;;19.47;66.14
29909;BME280;36247;51.952;6.146;2022-09-25T10:27:39;101361.91;;;20.42;65.02
29909;BME280;36247;51.952;6.146;2022-09-25T10:32:43;101365.31;;;22.14;63.12
29909;BME280;36247;51.952;6.146;2022-09-25T10:35:15;101367.41;;;20.36;60.05
29909;BME280;36247;51.952;6.146;2022-09-25T10:37:42;101377.03;;;17.55;71.28
29909;BME280;36247;51.952;6.146;2022-09-25T10:40:29;101369.81;;;17.68;74.56
29909;BME280;36247;51.952;6.146;2022-09-25T10:45:36;101357.88;;;18.98;75.33
29909;BME280;36247;51.952;6.146;2022-09-25T10:48:30;101353.63;;;18.77;71.76
29909;BME280;36247;51.952;6.146;2022-09-25T10:51:15;101367.38;;;17.28;73.81
29909;BME280;36247;51.952;6.146;2022-09-25T10:53:50;101367.69;;;16.32;78.05
29909;BME280;36247;51.952;6.146;2022-09-25T10:56:22;101374.81;;;16.18;80.81
29909;BME280;36247;51.952;6.146;2022-09-25T10:58:58;101371.28;;;16.03;80.47
29909;BME280;36247;51.952;6.146;2022-09-25T11:01:34;101360.41;;;18.29;75.48
29909;BME280;36247;51.952;6.146;2022-09-25T11:04:04;101359.91;;;20.02;68.12
29909;BME280;36247;51.952;6.146;2022-09-25T11:06:32;101360.34;;;20.29;65.52
29909;BME280;36247;51.952;6.146;2022-09-25T11:11:28;101350.59;;;20.24;60.76
29909;BME280;36247;51.952;6.146;2022-09-25T11:13:56;101337.81;;;20.83;57.66
29909;BME280;36247;51.952;6.146;2022-09-25T11:16:48;101353.75;;;20.45;57.87
29909;BME280;36247;51.952;6.146;2022-09-25T11:19:23;101341.13;;;20.95;55.42
29909;BME280;36247;51.952;6.146;2022-09-25T11:22:25;101347.78;;;20.77;56.90
29909;BME280;36247;51.952;6.146;2022-09-25T11:25:14;101346.44;;;20.99;52.69
29909;BME280;36247;51.952;6.146;2022-09-25T11:31:04;101337.16;;;21.54;54.90
29909;BME280;36247;51.952;6.146;2022-09-25T11:33:39;101346.19;;;19.63;56.10
29909;BME280;36247;51.952;6.146;2022-09-25T11:36:21;101352.19;;;17.30;66.26
29909;BME280;36247;51.952;6.146;2022-09-25T11:39:00;101353.44;;;18.08;65.06
29909;BME280;36247;51.952;6.146;2022-09-25T11:49:53;101318.50;;;21.04;54.90
29909;BME280;36247;51.952;6.146;2022-09-25T11:52:40;101312.59;;;21.27;56.77
29909;BME280;36247;51.952;6.146;2022-09-25T12:01:02;101307.97;;;21.33;52.18
29909;BME280;36247;51.952;6.146;2022-09-25T12:06:52;101310.16;;;20.28;52.03
29909;BME280;36247;51.952;6.146;2022-09-25T12:09:39;101311.97;;;19.74;56.81
29909;BME280;36247;51.952;6.146;2022-09-25T12:20:46;101296.44;;;19.95;60.95
29909;BME280;36247;51.952;6.146;2022-09-25T12:23:47;101295.97;;;19.09;60.29
29909;BME280;36247;51.952;6.146;2022-09-25T12:31:51;101297.22;;;18.02;57.02
29909;BME280;36247;51.952;6.146;2022-09-25T12:34:27;101296.72;;;17.48;60.43
29909;BME280;36247;51.952;6.146;2022-09-25T12:37:12;101284.19;;;17.54;61.51
29909;BME280;36247;51.952;6.146;2022-09-25T12:39:57;101289.41;;;17.70;62.30
29909;BME280;36247;51.952;6.146;2022-09-25T12:45:40;101278.78;;;17.62;64.83
29909;BME280;36247;51.952;6.146;2022-09-25T12:51:06;101273.91;;;16.88;61.38
29909;BME280;36247;51.952;6.146;2022-09-25T12:53:38;101273.78;;;17.09;65.47
29909;BME280;36247;51.952;6.146;2022-09-25T12:56:11;101273.00;;;16.89;68.71
29909;BME280;36247;51.952;6.146;2022-09-25T12:58:50;101263.53;;;17.66;65.27
29909;BME280;36247;51.952;6.146;2022-09-25T13:01:28;101257.19;;;17.77;65.07
29909;BME280;36247;51.952;6.146;2022-09-25T13:04:17;101261.72;;;17.71;61.77
29909;BME280;36247;51.952;6.146;2022-09-25T13:09:37;101256.09;;;18.00;62.37
29909;BME280;36247;51.952;6.146;2022-09-25T13:12:09;101252.25;;;18.27;63.31
29909;BME280;36247;51.952;6.146;2022-09-25T13:14:56;101255.88;;;18.23;59.95
29909;BME280;36247;51.952;6.146;2022-09-25T13:17:23;101244.47;;;18.03;60.67
29909;BME280;36247;51.952;6.146;2022-09-25T13:19:48;101248.31;;;17.74;60.97
29909;BME280;36247;51.952;6.146;2022-09-25T13:22:20;101251.41;;;17.20;64.20
29909;BME280;36247;51.952;6.146;2022-09-25T13:25:01;101248.03;;;16.91;64.13
29909;BME280;36247;51.952;6.146;2022-09-25T13:27:36;101246.19;;;17.01;65.90
29909;BME280;36247;51.952;6.146;2022-09-25T13:30:03;101243.44;;;17.07;64.00
29909;BME280;36247;51.952;6.146;2022-09-25T13:32:32;101249.00;;;16.67;65.20
29909;BME280;36247;51.952;6.146;2022-09-25T13:35:16;101244.72;;;16.25;70.53
29909;BME280;36247;51.952;6.146;2022-09-25T13:37:42;101243.00;;;15.90;73.26
29909;BME280;36247;51.952;6.146;2022-09-25T13:40:19;101248.38;;;16.00;77.88
29909;BME280;36247;51.952;6.146;2022-09-25T13:43:21;101249.25;;;15.92;78.07
29909;BME280;36247;51.952;6.146;2022-09-25T13:48:40;101241.25;;;15.85;78.77
29909;BME280;36247;51.952;6.146;2022-09-25T13:56:43;101240.28;;;16.22;82.62
29909;BME280;36247;51.952;6.146;2022-09-25T14:01:44;101237.66;;;16.07;80.81
29909;BME280;36247;51.952;6.146;2022-09-25T14:04:19;101239.41;;;16.08;82.98
29909;BME280;36247;51.952;6.146;2022-09-25T14:06:48;101226.03;;;16.09;81.46
29909;BME280;36247;51.952;6.146;2022-09-25T14:09:21;101235.88;;;15.73;79.91
29909;BME280;36247;51.952;6.146;2022-09-25T14:12:03;101231.44;;;15.89;81.19
29909;BME280;36247;51.952;6.146;2022-09-25T14:14:50;101228.72;;;16.17;80.02
29909;BME280;36247;51.952;6.146;2022-09-25T14:17:21;101230.56;;;15.89;80.71
29909;BME280;36247;51.952;6.146;2022-09-25T14:19:50;101229.66;;;15.88;78.92
29909;BME280;36247;51.952;6.146;2022-09-25T14:22:21;101222.53;;;15.72;81.96
29909;BME280;36247;51.952;6.146;2022-09-25T14:24:51;101232.31;;;15.77;82.75
29909;BME280;36247;51.952;6.146;2022-09-25T14:27:23;101226.97;;;15.77;83.98
29909;BME280;36247;51.952;6.146;2022-09-25T14:29:50;101227.91;;;15.84;83.33
29909;BME280;36247;51.952;6.146;2022-09-25T14:35:15;101225.22;;;15.51;82.76
29909;BME280;36247;51.952;6.146;2022-09-25T14:40:28;101215.34;;;16.18;82.65
29909;BME280;36247;51.952;6.146;2022-09-25T14:46:07;101204.41;;;16.72;77.46
29909;BME280;36247;51.952;6.146;2022-09-25T14:48:43;101207.94;;;17.92;65.93
29909;BME280;36247;51.952;6.146;2022-09-25T14:51:19;101210.59;;;16.76;68.72
29909;BME280;36247;51.952;6.146;2022-09-25T14:53:50;101213.56;;;16.17;70.80
29909;BME280;36247;51.952;6.146;2022-09-25T14:56:19;101215.38;;;16.06;73.28
29909;BME280;36247;51.952;6.146;2022-09-25T14:58:57;101212.09;;;18.23;65.29
29909;BME280;36247;51.952;6.146;2022-09-25T15:01:26;101208.81;;;18.69;61.94
29909;BME280;36247;51.952;6.146;2022-09-25T15:03:56;101203.72;;;19.11;61.39
29909;BME280;36247;51.952;6.146;2022-09-25T15:06:31;101202.59;;;17.89;64.59
29909;BME280;36247;51.952;6.146;2022-09-25T15:08:57;101201.38;;;17.26;73.14
29909;BME280;36247;51.952;6.146;2022-09-25T15:11:37;101201.75;;;16.68;76.20
29909;BME280;36247;51.952;6.146;2022-09-25T15:14:14;101200.13;;;16.33;77.80